Time;durP1;ratioP1;P1;durP2;ratioP2;P2;SDS_P1;SDS_P2;PMS_P1;PMS_P2;Temp;Humidity;BMP_temperature;BMP_pressure;BME280_temperature;BME280_humidity;BME280_pressure;Samples;Min_cycle;Max_cycle;Signal;HPM_P1;HPM_P2
2021/10/11 00:02:17;;;;;;;;;;;10.80;99.90;;;;;;5095403;28;19924;-78
2021/10/11 00:04:45;;;;;;;;;;;10.70;99.90;;;;;;5095158;28;19930;-80
2021/10/11 00:07:16;;;;;;;;;;;10.70;99.90;;;;;;5095416;28;19990;-78
2021/10/11 00:09:44;;;;;;;;;;;10.60;99.90;;;;;;5095099;28;19967;-77
2021/10/11 00:12:14;;;;;;;;;;;10.60;99.90;;;;;;5095044;28;19924;-78
2021/10/11 00:14:42;;;;;;;;;;;10.50;99.90;;;;;;5094923;28;19932;-78
2021/10/11 00:17:11;;;;;;;;;;;10.50;99.90;;;;;;5095320;28;19935;-78
2021/10/11 00:19:38;;;;;;;;;;;10.50;99.90;;;;;;5095054;28;19925;-77
2021/10/11 00:22:08;;;;;;;;;;;10.50;99.90;;;;;;5094983;28;19975;-78
2021/10/11 00:24:36;;;;;;;;;;;10.40;99.90;;;;;;5093426;28;19924;-78
2021/10/11 00:27:05;;;;;;;;;;;10.40;99.90;;;;;;5085464;28;19928;-75
2021/10/11 00:29:33;;;;;;;;;;;10.40;99.90;;;;;;5091437;28;20276;-77
2021/10/11 00:32:10;;;;;;;;;;;10.40;99.90;;;;;;5094822;28;20268;-77
2021/10/11 00:34:38;;;;;;;;;;;10.30;99.90;;;;;;5094686;28;19997;-77
2021/10/11 00:37:06;;;;;;;;;;;10.30;99.90;;;;;;5094951;28;19924;-77
2021/10/11 00:39:36;;;;;;;;;;;10.30;99.90;;;;;;5094796;28;19931;-75
2021/10/11 00:42:04;;;;;;;;;;;10.30;99.90;;;;;;5094648;28;20268;-76
2021/10/11 00:44:33;;;;;;;;;;;10.30;99.90;;;;;;5094826;28;19934;-76
2021/10/11 00:47:01;;;;;;;;;;;10.40;99.90;;;;;;5094883;28;19925;-76
2021/10/11 00:49:29;;;;;;;;;;;10.40;99.90;;;;;;5094678;28;19928;-76
2021/10/11 00:51:56;;;;;;;;;;;10.40;99.90;;;;;;5094997;28;19998;-76
2021/10/11 00:54:23;;;;;;;;;;;10.50;99.90;;;;;;5095268;28;19925;-76
2021/10/11 00:56:52;;;;;;;;;;;10.40;99.90;;;;;;5097672;28;19924;-76
2021/10/11 00:59:19;;;;;;;;;;;10.50;99.90;;;;;;5098561;28;20269;-76
2021/10/11 01:01:46;;;;;;;;;;;10.50;99.90;;;;;;5098723;28;19950;-76
2021/10/11 01:04:13;;;;;;;;;;;10.50;99.90;;;;;;5098478;28;19935;-76
2021/10/11 01:06:40;;;;;;;;;;;10.40;99.90;;;;;;5098310;28;19924;-76
2021/10/11 01:09:07;;;;;;;;;;;10.40;99.90;;;;;;5098416;28;19924;-76
2021/10/11 01:11:34;;;;;;;;;;;10.40;99.90;;;;;;5098177;28;19924;-76
2021/10/11 01:14:03;;;;;;;;;;;10.40;99.90;;;;;;5098396;28;19935;-76
2021/10/11 01:16:30;;;;;;;;;;;10.30;99.90;;;;;;5098373;28;20023;-75
2021/10/11 01:18:57;;;;;;;;;;;10.30;99.90;;;;;;5098136;28;19978;-76
2021/10/11 01:21:25;;;;;;;;;;;10.30;99.90;;;;;;5098165;28;19935;-76
2021/10/11 01:23:52;;;;;;;;;;;10.30;99.90;;;;;;5098062;28;19925;-76
2021/10/11 01:26:19;;;;;;;;;;;10.20;99.90;;;;;;5097889;28;19975;-76
2021/10/11 01:28:46;;;;;;;;;;;10.20;99.90;;;;;;5097929;28;19989;-76
2021/10/11 01:31:13;;;;;;;;;;;10.20;99.90;;;;;;5097894;28;19935;-76
2021/10/11 01:33:40;;;;;;;;;;;10.20;99.90;;;;;;5097719;28;19935;-76
2021/10/11 01:36:07;;;;;;;;;;;10.10;99.90;;;;;;5098073;28;19924;-91
2021/10/11 01:38:36;;;;;;;;;;;10.10;99.90;;;;;;5097997;28;19924;-76
2021/10/11 01:41:02;;;;;;;;;;;10.10;99.90;;;;;;5097580;28;20009;-76
2021/10/11 01:43:32;;;;;;;;;;;10.10;99.90;;;;;;5097870;28;19928;-76
2021/10/11 01:45:59;;;;;;;;;;;10.10;99.90;;;;;;5097768;28;19981;-76
2021/10/11 01:48:28;;;;;;;;;;;10.10;99.90;;;;;;5097490;28;19935;-76
2021/10/11 01:50:55;;;;;;;;;;;10.10;99.90;;;;;;5097481;28;19924;-76
2021/10/11 01:53:22;;;;;;;;;;;10.10;99.90;;;;;;5097298;28;20358;-76
2021/10/11 01:55:51;;;;;;;;;;;10.10;99.90;;;;;;5097270;28;19928;-76
2021/10/11 01:58:18;;;;;;;;;;;10.00;99.90;;;;;;5097319;28;20295;-76
2021/10/11 02:00:45;;;;;;;;;;;10.00;99.90;;;;;;5097319;28;19931;-76
2021/10/11 02:03:12;;;;;;;;;;;10.00;99.90;;;;;;5097422;28;19981;-76
2021/10/11 02:05:39;;;;;;;;;;;10.00;99.90;;;;;;5096818;28;20019;-76
2021/10/11 02:08:06;;;;;;;;;;;10.00;99.90;;;;;;5097382;28;19924;-76
2021/10/11 02:10:33;;;;;;;;;;;9.90;99.90;;;;;;5097072;28;19985;-76
2021/10/11 02:13:01;;;;;;;;;;;10.00;99.90;;;;;;5097076;28;19930;-76
2021/10/11 02:15:28;;;;;;;;;;;9.90;99.90;;;;;;5096932;28;19924;-76
2021/10/11 02:17:56;;;;;;;;;;;9.90;99.90;;;;;;5097091;28;19935;-76
2021/10/11 02:20:23;;;;;;;;;;;9.90;99.90;;;;;;5096856;28;19949;-76
2021/10/11 02:22:50;;;;;;;;;;;9.80;99.90;;;;;;5097124;28;19982;-75
2021/10/11 02:25:17;;;;;;;;;;;9.80;99.90;;;;;;5096885;28;19953;-76
2021/10/11 02:27:44;;;;;;;;;;;9.80;99.90;;;;;;5096860;28;20303;-75
2021/10/11 02:30:12;;;;;;;;;;;9.80;99.90;;;;;;5096801;28;19924;-76
2021/10/11 02:32:41;;;;;;;;;;;9.80;99.90;;;;;;5096779;28;19928;-75
2021/10/11 02:35:08;;;;;;;;;;;9.80;99.90;;;;;;5096649;28;19971;-76
2021/10/11 02:37:35;;;;;;;;;;;9.80;99.90;;;;;;5096731;28;19924;-75
2021/10/11 02:40:02;;;;;;;;;;;9.70;99.90;;;;;;5096561;28;20355;-75
2021/10/11 02:42:29;;;;;;;;;;;9.70;99.90;;;;;;5096489;28;19975;-75
2021/10/11 02:44:55;;;;;;;;;;;9.70;99.90;;;;;;5096588;28;19924;-76
2021/10/11 02:47:24;;;;;;;;;;;9.70;99.90;;;;;;5096549;28;20006;-76
2021/10/11 02:49:51;;;;;;;;;;;9.70;99.90;;;;;;5096459;28;19924;-76
2021/10/11 02:52:18;;;;;;;;;;;9.70;99.90;;;;;;5096360;28;19924;-76
2021/10/11 02:54:45;;;;;;;;;;;9.70;99.90;;;;;;5096129;28;20344;-76
2021/10/11 02:57:12;;;;;;;;;;;9.60;99.90;;;;;;5096413;28;19950;-76
2021/10/11 02:59:38;;;;;;;;;;;9.60;99.90;;;;;;5096529;28;19924;-75
2021/10/11 03:02:05;;;;;;;;;;;9.60;99.90;;;;;;5096136;28;19935;-75
2021/10/11 03:04:35;;;;;;;;;;;9.60;99.90;;;;;;5096303;28;19968;-75
2021/10/11 03:07:02;;;;;;;;;;;9.50;99.90;;;;;;5096443;28;19928;-75
2021/10/11 03:09:29;;;;;;;;;;;9.50;99.90;;;;;;5096281;28;20465;-75
2021/10/11 03:11:56;;;;;;;;;;;9.50;99.90;;;;;;5096027;28;19924;-75
2021/10/11 03:14:23;;;;;;;;;;;9.50;99.90;;;;;;5095963;28;19978;-75
2021/10/11 03:16:50;;;;;;;;;;;9.50;99.90;;;;;;5095249;28;19985;-75
2021/10/11 03:19:17;;;;;;;;;;;9.50;99.90;;;;;;5096271;28;19971;-75
2021/10/11 03:21:45;;;;;;;;;;;9.40;99.90;;;;;;5095960;28;19923;-75
2021/10/11 03:24:12;;;;;;;;;;;9.40;99.90;;;;;;5095944;28;19928;-75
2021/10/11 03:26:39;;;;;;;;;;;9.40;99.90;;;;;;5095697;28;20402;-75
2021/10/11 03:29:06;;;;;;;;;;;9.40;99.90;;;;;;5095845;28;19924;-75
2021/10/11 03:31:33;;;;;;;;;;;9.30;99.90;;;;;;5095776;28;19938;-75
2021/10/11 03:34:00;;;;;;;;;;;9.30;99.90;;;;;;5095701;28;19993;-75
2021/10/11 03:36:27;;;;;;;;;;;9.30;99.90;;;;;;5095860;28;20336;-75
2021/10/11 03:38:55;;;;;;;;;;;9.20;99.90;;;;;;5095679;28;19973;-75
2021/10/11 03:41:22;;;;;;;;;;;9.20;99.90;;;;;;5095570;28;20263;-75
2021/10/11 03:43:49;;;;;;;;;;;9.20;99.90;;;;;;5095406;28;19951;-75
2021/10/11 03:46:16;;;;;;;;;;;9.20;99.90;;;;;;5095654;28;19971;-75
2021/10/11 03:48:43;;;;;;;;;;;9.20;99.90;;;;;;5095648;28;20233;-75
2021/10/11 03:51:10;;;;;;;;;;;9.20;99.90;;;;;;5095576;28;19928;-75
2021/10/11 03:53:38;;;;;;;;;;;9.10;99.90;;;;;;5095605;28;19975;-75
2021/10/11 03:56:06;;;;;;;;;;;9.10;99.90;;;;;;5095168;28;19924;-75
2021/10/11 03:58:33;;;;;;;;;;;9.10;99.90;;;;;;5095312;28;19990;-75
2021/10/11 04:01:00;;;;;;;;;;;9.00;99.90;;;;;;5095285;28;20018;-76
2021/10/11 04:03:27;;;;;;;;;;;9.00;99.90;;;;;;5095225;28;19931;-75
2021/10/11 04:05:54;;;;;;;;;;;8.90;99.90;;;;;;5095233;28;19935;-75
2021/10/11 04:08:22;;;;;;;;;;;8.90;99.90;;;;;;5095286;28;19925;-75
2021/10/11 04:10:55;;;;;;;;;;;8.90;99.90;;;;;;5095350;28;20352;-76
2021/10/11 04:13:24;;;;;;;;;;;8.90;99.90;;;;;;5095401;28;19924;-75
2021/10/11 04:15:51;;;;;;;;;;;8.90;99.90;;;;;;5095310;28;19986;-75
2021/10/11 04:18:17;;;;;;;;;;;8.80;99.90;;;;;;5095373;28;20023;-75
2021/10/11 04:20:44;;;;;;;;;;;8.80;99.90;;;;;;5095080;28;20018;-75
2021/10/11 04:23:11;;;;;;;;;;;8.80;99.90;;;;;;5095180;28;19923;-75
2021/10/11 04:25:38;;;;;;;;;;;8.70;99.90;;;;;;5095101;28;19924;-75
2021/10/11 04:28:07;;;;;;;;;;;8.70;99.90;;;;;;5095256;28;19924;-75
2021/10/11 04:30:35;;;;;;;;;;;8.70;99.90;;;;;;5099284;28;19924;-75
2021/10/11 04:33:02;;;;;;;;;;;8.70;99.90;;;;;;5099162;28;19985;-75
2021/10/11 04:35:29;;;;;;;;;;;8.70;99.90;;;;;;5099204;28;19928;-75
2021/10/11 04:37:56;;;;;;;;;;;8.60;99.90;;;;;;5099196;28;19988;-75
2021/10/11 04:40:23;;;;;;;;;;;8.60;99.90;;;;;;5099066;28;19924;-75
2021/10/11 04:42:50;;;;;;;;;;;8.60;99.90;;;;;;5099184;28;19928;-75
2021/10/11 04:45:17;;;;;;;;;;;8.70;99.90;;;;;;5099145;28;20024;-75
2021/10/11 04:47:45;;;;;;;;;;;8.70;99.90;;;;;;5098869;28;20311;-75
2021/10/11 04:50:12;;;;;;;;;;;8.80;99.90;;;;;;5098866;28;19928;-75
2021/10/11 04:52:39;;;;;;;;;;;8.80;99.90;;;;;;5098961;28;20419;-75
2021/10/11 04:55:06;;;;;;;;;;;8.80;99.90;;;;;;5098449;28;19932;-75
2021/10/11 04:57:33;;;;;;;;;;;8.80;99.90;;;;;;5098917;28;20267;-75
2021/10/11 04:59:59;;;;;;;;;;;8.90;99.90;;;;;;5098894;28;20023;-75
2021/10/11 05:02:26;;;;;;;;;;;8.90;99.90;;;;;;5098568;28;20378;-75
2021/10/11 05:04:55;;;;;;;;;;;9.00;99.90;;;;;;5098411;28;19931;-75
2021/10/11 05:07:22;;;;;;;;;;;9.00;99.90;;;;;;5098469;28;19924;-75
2021/10/11 05:09:49;;;;;;;;;;;9.00;99.90;;;;;;5098373;28;19924;-75
2021/10/11 05:12:15;;;;;;;;;;;9.00;99.90;;;;;;5098684;28;20314;-75
2021/10/11 05:14:42;;;;;;;;;;;9.00;99.90;;;;;;5098550;28;20419;-75
2021/10/11 05:17:09;;;;;;;;;;;9.10;99.90;;;;;;5098481;28;19950;-76
2021/10/11 05:19:36;;;;;;;;;;;9.00;99.90;;;;;;5098419;28;20007;-76
2021/10/11 05:22:05;;;;;;;;;;;9.00;99.90;;;;;;5098187;28;19971;-76
2021/10/11 05:24:32;;;;;;;;;;;9.00;99.90;;;;;;5098452;28;20069;-75
2021/10/11 05:26:59;;;;;;;;;;;9.00;99.90;;;;;;5098250;28;19971;-75
2021/10/11 05:29:26;;;;;;;;;;;9.10;99.90;;;;;;5098219;28;19924;-75
2021/10/11 05:31:54;;;;;;;;;;;9.10;99.90;;;;;;5098064;28;20000;-75
2021/10/11 05:34:22;;;;;;;;;;;9.10;99.90;;;;;;5097918;28;20352;-75
2021/10/11 05:36:50;;;;;;;;;;;9.10;99.90;;;;;;5097823;28;19978;-75
2021/10/11 05:39:20;;;;;;;;;;;9.10;99.90;;;;;;5099261;28;19924;-76
2021/10/11 05:41:48;;;;;;;;;;;9.10;99.90;;;;;;5099163;28;20407;-75
2021/10/11 05:44:17;;;;;;;;;;;9.00;99.90;;;;;;5098311;28;20306;-76
2021/10/11 05:46:45;;;;;;;;;;;9.10;99.90;;;;;;5097792;28;19924;-76
2021/10/11 05:49:12;;;;;;;;;;;9.00;99.90;;;;;;5097514;28;19940;-76
2021/10/11 05:51:43;;;;;;;;;;;9.00;99.90;;;;;;5097875;28;19934;-75
2021/10/11 05:54:11;;;;;;;;;;;9.00;99.90;;;;;;5097652;28;19924;-75
2021/10/11 05:56:41;;;;;;;;;;;8.90;99.90;;;;;;5097427;28;19931;-75
2021/10/11 05:59:10;;;;;;;;;;;8.90;99.90;;;;;;5097424;28;19931;-75
2021/10/11 06:01:39;;;;;;;;;;;8.90;99.90;;;;;;5097671;28;19924;-75
2021/10/11 06:04:07;;;;;;;;;;;8.90;99.90;;;;;;5097546;28;19977;-75
2021/10/11 06:06:36;;;;;;;;;;;8.80;99.90;;;;;;5097360;28;19924;-76
2021/10/11 06:09:04;;;;;;;;;;;8.80;99.90;;;;;;5097319;28;20267;-75
2021/10/11 06:11:32;;;;;;;;;;;8.80;99.90;;;;;;5097156;28;20405;-75
2021/10/11 06:14:01;;;;;;;;;;;8.70;99.90;;;;;;5097292;28;20356;-76
2021/10/11 06:16:30;;;;;;;;;;;8.70;99.90;;;;;;5097141;28;20007;-75
2021/10/11 06:18:58;;;;;;;;;;;8.70;99.90;;;;;;5097359;28;19990;-75
2021/10/11 06:21:25;;;;;;;;;;;8.70;99.90;;;;;;5101530;28;19930;-75
2021/10/11 06:23:54;;;;;;;;;;;8.60;99.90;;;;;;5162021;22;19925;-76
2021/10/11 06:26:21;;;;;;;;;;;8.60;99.90;;;;;;5076886;28;19971;-76
2021/10/11 06:28:50;;;;;;;;;;;8.50;99.90;;;;;;5076664;28;20023;-75
2021/10/11 06:31:19;;;;;;;;;;;8.60;99.90;;;;;;5076727;28;19925;-75
2021/10/11 06:33:46;;;;;;;;;;;8.60;99.90;;;;;;5076664;28;20336;-75
2021/10/11 06:36:14;;;;;;;;;;;8.60;99.90;;;;;;5076769;28;19925;-76
2021/10/11 06:38:41;;;;;;;;;;;8.60;99.90;;;;;;5076630;28;19947;-75
2021/10/11 06:41:08;;;;;;;;;;;8.60;99.90;;;;;;5076361;28;20429;-75
2021/10/11 06:43:36;;;;;;;;;;;8.60;99.90;;;;;;5076082;28;20462;-76
2021/10/11 06:46:03;;;;;;;;;;;8.60;99.90;;;;;;5076300;28;19928;-76
2021/10/11 06:48:31;;;;;;;;;;;8.60;99.90;;;;;;5076437;28;19972;-76
2021/10/11 06:50:58;;;;;;;;;;;8.60;99.90;;;;;;5076404;28;20331;-76
2021/10/11 06:53:25;;;;;;;;;;;8.60;99.90;;;;;;5074141;28;19924;-76
2021/10/11 06:55:52;;;;;;;;;;;8.60;99.90;;;;;;5075984;28;19932;-76
2021/10/11 06:58:19;;;;;;;;;;;8.60;99.90;;;;;;5076122;28;19932;-76
2021/10/11 07:00:46;;;;;;;;;;;8.60;99.90;;;;;;5076062;28;19967;-76
2021/10/11 07:03:13;;;;;;;;;;;8.60;99.90;;;;;;5076027;28;20010;-76
2021/10/11 07:05:41;;;;;;;;;;;8.60;99.90;;;;;;5076030;28;19932;-76
2021/10/11 07:08:10;;;;;;;;;;;8.60;99.90;;;;;;5075821;28;19928;-76
2021/10/11 07:10:37;;;;;;;;;;;8.60;99.90;;;;;;5075382;28;19968;-76
2021/10/11 07:13:04;;;;;;;;;;;8.70;99.90;;;;;;5075893;28;19931;-76
2021/10/11 07:15:33;;;;;;;;;;;8.80;99.90;;;;;;5075764;28;20018;-76
2021/10/11 07:18:00;;;;;;;;;;;8.70;99.90;;;;;;5075894;28;19924;-76
2021/10/11 07:20:27;;;;;;;;;;;8.80;99.90;;;;;;5075701;28;19924;-76
2021/10/11 07:22:55;;;;;;;;;;;8.90;99.90;;;;;;5075430;28;19924;-76
2021/10/11 07:25:22;;;;;;;;;;;8.90;99.90;;;;;;5075462;28;19935;-75
2021/10/11 07:27:49;;;;;;;;;;;9.00;99.90;;;;;;5075502;28;19928;-75
2021/10/11 07:30:16;;;;;;;;;;;9.00;99.90;;;;;;5075733;28;20011;-76
2021/10/11 07:32:43;;;;;;;;;;;9.00;99.90;;;;;;5075495;28;20371;-76
2021/10/11 07:35:10;;;;;;;;;;;9.10;99.90;;;;;;5075570;28;19925;-75
2021/10/11 07:37:37;;;;;;;;;;;9.10;99.90;;;;;;5075583;28;19924;-75
2021/10/11 07:40:07;;;;;;;;;;;9.20;99.90;;;;;;5075373;28;20268;-75
2021/10/11 07:42:34;;;;;;;;;;;9.20;99.90;;;;;;5075273;28;19924;-75
2021/10/11 07:45:02;;;;;;;;;;;9.30;99.90;;;;;;5075581;28;19935;-75
2021/10/11 07:47:29;;;;;;;;;;;9.30;99.90;;;;;;5075252;28;20250;-75
2021/10/11 07:49:56;;;;;;;;;;;9.40;99.90;;;;;;5075419;28;19971;-75
2021/10/11 07:52:23;;;;;;;;;;;9.40;99.90;;;;;;5075069;28;19925;-75
2021/10/11 07:54:50;;;;;;;;;;;9.50;99.90;;;;;;5075471;28;19924;-75
2021/10/11 07:57:18;;;;;;;;;;;9.60;99.90;;;;;;5075473;28;19932;-75
2021/10/11 07:59:45;;;;;;;;;;;9.70;99.90;;;;;;5075315;28;19936;-75
2021/10/11 08:02:12;;;;;;;;;;;9.70;99.90;;;;;;5075172;28;19929;-76
2021/10/11 08:04:39;;;;;;;;;;;9.80;99.90;;;;;;5074644;28;19928;-76
2021/10/11 08:07:06;;;;;;;;;;;9.90;99.90;;;;;;5074993;28;19925;-76
2021/10/11 08:09:33;;;;;;;;;;;10.00;99.90;;;;;;5074861;28;19974;-76
2021/10/11 08:12:00;;;;;;;;;;;10.10;99.90;;;;;;5075154;28;20287;-76
2021/10/11 08:14:29;;;;;;;;;;;10.20;99.90;;;;;;5075071;28;20370;-77
2021/10/11 08:16:55;;;;;;;;;;;10.20;99.90;;;;;;5075108;28;19999;-76
2021/10/11 08:19:22;;;;;;;;;;;10.30;99.90;;;;;;5074880;28;19924;-76
2021/10/11 08:21:49;;;;;;;;;;;10.40;99.90;;;;;;5074924;28;19951;-76
2021/10/11 08:24:16;;;;;;;;;;;10.50;99.90;;;;;;5074499;28;20015;-77
2021/10/11 08:26:43;;;;;;;;;;;10.50;99.90;;;;;;5074622;28;19924;-77
2021/10/11 08:29:10;;;;;;;;;;;10.60;99.90;;;;;;5074993;28;19924;-77
2021/10/11 08:31:38;;;;;;;;;;;10.70;99.90;;;;;;5075066;28;19997;-77
2021/10/11 08:34:05;;;;;;;;;;;10.70;99.90;;;;;;5074840;28;19935;-78
2021/10/11 08:36:32;;;;;;;;;;;10.80;99.90;;;;;;5074615;28;19936;-77
2021/10/11 08:38:59;;;;;;;;;;;10.80;99.90;;;;;;5074749;28;20334;-77
2021/10/11 08:41:26;;;;;;;;;;;10.90;99.90;;;;;;5074671;28;19975;-77
2021/10/11 08:43:53;;;;;;;;;;;10.90;99.90;;;;;;5075035;28;19925;-77
2021/10/11 08:46:20;;;;;;;;;;;10.90;99.90;;;;;;5074609;28;20378;-77
2021/10/11 08:48:48;;;;;;;;;;;10.90;99.90;;;;;;5074669;28;19932;-77
2021/10/11 08:51:15;;;;;;;;;;;10.90;99.90;;;;;;5074680;28;19924;-77
2021/10/11 08:53:42;;;;;;;;;;;10.90;99.90;;;;;;5074523;28;20406;-77
2021/10/11 08:56:10;;;;;;;;;;;10.80;99.90;;;;;;5074531;28;19947;-77
2021/10/11 08:58:44;;;;;;;;;;;10.80;99.90;;;;;;5074648;28;19932;-77
2021/10/11 09:01:11;;;;;;;;;;;10.80;99.90;;;;;;5074595;28;19924;-77
2021/10/11 09:03:37;;;;;;;;;;;10.80;99.90;;;;;;5074299;28;20258;-77
2021/10/11 09:06:07;;;;;;;;;;;10.80;99.90;;;;;;5074259;28;19924;-78
2021/10/11 09:08:34;;;;;;;;;;;10.90;99.90;;;;;;5074439;28;19924;-78
2021/10/11 09:11:01;;;;;;;;;;;10.90;99.90;;;;;;5074351;28;19925;-77
2021/10/11 09:13:28;;;;;;;;;;;10.90;99.90;;;;;;5074294;28;19925;-78
2021/10/11 09:16:03;;;;;;;;;;;10.90;99.90;;;;;;5075874;28;19986;-78
2021/10/11 09:18:30;;;;;;;;;;;11.00;99.90;;;;;;5077958;28;19979;-78
2021/10/11 09:20:57;;;;;;;;;;;11.00;99.90;;;;;;5077844;28;20296;-77
2021/10/11 09:23:29;;;;;;;;;;;11.00;99.90;;;;;;5090680;28;19924;-78
2021/10/11 09:25:56;;;;;;;;;;;11.00;99.90;;;;;;5097998;28;20011;-78
2021/10/11 09:28:25;;;;;;;;;;;11.00;99.90;;;;;;5097923;28;20024;-77
2021/10/11 09:30:52;;;;;;;;;;;11.00;99.90;;;;;;5098063;28;19924;-78
2021/10/11 09:33:20;;;;;;;;;;;11.10;99.90;;;;;;5098249;28;19924;-77
2021/10/11 09:35:47;;;;;;;;;;;11.10;99.90;;;;;;5097842;28;19931;-77
2021/10/11 09:38:21;;;;;;;;;;;11.20;99.90;;;;;;5097850;28;19931;-77
2021/10/11 09:40:50;;;;;;;;;;;11.20;99.90;;;;;;5097855;28;20427;-78
2021/10/11 09:43:17;;;;;;;;;;;11.30;99.90;;;;;;5097849;28;19954;-78
2021/10/11 09:45:44;;;;;;;;;;;11.40;99.90;;;;;;5097643;28;19924;-80
2021/10/11 09:48:11;;;;;;;;;;;11.40;99.90;;;;;;5097837;28;20401;-77
2021/10/11 09:50:38;;;;;;;;;;;11.50;99.90;;;;;;5097756;28;19924;-77
2021/10/11 09:53:05;;;;;;;;;;;11.50;99.90;;;;;;5097388;28;19931;-78
2021/10/11 09:55:33;;;;;;;;;;;11.60;99.90;;;;;;5097762;28;19924;-78
2021/10/11 09:58:01;;;;;;;;;;;11.70;99.90;;;;;;5097416;28;19928;-77
2021/10/11 10:00:28;;;;;;;;;;;11.80;99.90;;;;;;5097695;28;20035;-78
2021/10/11 10:02:56;;;;;;;;;;;11.90;99.90;;;;;;5097452;28;20022;-79
2021/10/11 10:05:24;;;;;;;;;;;11.90;99.90;;;;;;5097507;28;20332;-78
2021/10/11 10:07:51;;;;;;;;;;;12.00;99.90;;;;;;5097324;28;19930;-78
2021/10/11 10:10:19;;;;;;;;;;;12.00;99.90;;;;;;5097120;28;20026;-78
2021/10/11 10:12:47;;;;;;;;;;;12.10;99.90;;;;;;5097174;28;19931;-80
2021/10/11 10:15:25;;;;;;;;;;;12.10;99.90;;;;;;5097413;28;20057;-77
2021/10/11 10:17:59;;;;;;;;;;;12.10;99.90;;;;;;5097281;28;19924;-79
2021/10/11 10:20:26;;;;;;;;;;;12.10;99.90;;;;;;5097211;28;19924;-79
2021/10/11 10:22:53;;;;;;;;;;;12.20;99.90;;;;;;5097027;28;19932;-78
2021/10/11 10:25:20;;;;;;;;;;;12.20;99.90;;;;;;5096861;28;19928;-77
2021/10/11 10:27:49;;;;;;;;;;;12.20;99.90;;;;;;5096562;28;19975;-80
2021/10/11 10:30:18;;;;;;;;;;;12.20;99.90;;;;;;5096961;28;20331;-77
2021/10/11 10:32:52;;;;;;;;;;;12.30;99.90;;;;;;5096964;28;20015;-77
2021/10/11 10:35:19;;;;;;;;;;;12.40;99.90;;;;;;5096724;28;19938;-75
2021/10/11 10:37:46;;;;;;;;;;;12.40;99.90;;;;;;5096615;28;19924;-75
2021/10/11 10:40:14;;;;;;;;;;;12.40;99.90;;;;;;5096848;28;19924;-75
2021/10/11 10:42:41;;;;;;;;;;;12.60;99.90;;;;;;5096897;28;19928;-76
2021/10/11 10:45:14;;;;;;;;;;;12.70;99.90;;;;;;5096620;28;20292;-75
2021/10/11 10:47:43;;;;;;;;;;;12.80;99.90;;;;;;5096615;28;19928;-75
2021/10/11 10:50:11;;;;;;;;;;;12.90;99.90;;;;;;5096587;28;19924;-75
2021/10/11 10:52:37;;;;;;;;;;;12.90;99.90;;;;;;5096495;28;19974;-75
2021/10/11 10:55:05;;;;;;;;;;;13.00;99.90;;;;;;5096735;28;20318;-75
2021/10/11 10:57:32;;;;;;;;;;;13.00;99.90;;;;;;5096644;28;19924;-75
2021/10/11 11:00:00;;;;;;;;;;;13.10;99.90;;;;;;5096466;28;19947;-75
2021/10/11 11:02:27;;;;;;;;;;;13.20;99.90;;;;;;5096283;28;20018;-75
2021/10/11 11:04:57;;;;;;;;;;;13.20;99.90;;;;;;5096234;28;19924;-75
2021/10/11 11:07:27;;;;;;;;;;;13.20;99.90;;;;;;5096461;28;19932;-75
2021/10/11 11:09:54;;;;;;;;;;;13.20;99.90;;;;;;5096136;28;19934;-75
2021/10/11 11:12:28;;;;;;;;;;;13.20;99.90;;;;;;5096178;28;20356;-75
2021/10/11 11:14:55;;;;;;;;;;;13.20;99.90;;;;;;5096168;28;19950;-75
2021/10/11 11:17:27;;;;;;;;;;;13.20;99.90;;;;;;5095937;28;19971;-75
2021/10/11 11:19:56;;;;;;;;;;;13.20;99.90;;;;;;5096069;28;20249;-75
2021/10/11 11:22:29;;;;;;;;;;;13.20;99.90;;;;;;5096066;28;20044;-75
2021/10/11 11:25:00;;;;;;;;;;;13.30;99.90;;;;;;5095574;28;19924;-75
2021/10/11 11:27:28;;;;;;;;;;;13.30;99.90;;;;;;5096009;28;20076;-75
2021/10/11 11:29:55;;;;;;;;;;;13.30;99.90;;;;;;5095506;28;19931;-75
2021/10/11 11:32:22;;;;;;;;;;;13.30;99.90;;;;;;5095604;28;20261;-75
2021/10/11 11:34:49;;;;;;;;;;;13.40;99.90;;;;;;5095678;28;19924;-74
2021/10/11 11:37:17;;;;;;;;;;;13.40;99.90;;;;;;5095537;28;19924;-75
2021/10/11 11:39:44;;;;;;;;;;;13.40;99.90;;;;;;5094978;28;19935;-75
2021/10/11 11:42:11;;;;;;;;;;;13.50;99.90;;;;;;5095657;28;20406;-75
2021/10/11 11:44:38;;;;;;;;;;;13.60;99.90;;;;;;5095556;28;20023;-75
2021/10/11 11:47:06;;;;;;;;;;;13.60;99.90;;;;;;5095682;28;19924;-74
2021/10/11 11:49:35;;;;;;;;;;;13.50;99.90;;;;;;5095311;28;20034;-75
2021/10/11 11:52:08;;;;;;;;;;;13.50;99.90;;;;;;5095632;28;20320;-75
2021/10/11 11:54:37;;;;;;;;;;;13.40;99.90;;;;;;5095394;28;20277;-75
2021/10/11 11:57:04;;;;;;;;;;;13.50;99.90;;;;;;5095345;28;19968;-75
2021/10/11 11:59:37;;;;;;;;;;;13.50;99.90;;;;;;5094500;28;20473;-75
2021/10/11 12:02:08;;;;;;;;;;;13.60;99.90;;;;;;5095314;28;19949;-75
2021/10/11 12:04:36;;;;;;;;;;;13.70;99.90;;;;;;5095720;28;19935;-75
2021/10/11 12:07:04;;;;;;;;;;;13.80;99.90;;;;;;5095346;28;19939;-75
2021/10/11 12:09:33;;;;;;;;;;;13.90;99.90;;;;;;5095070;28;19989;-75
2021/10/11 12:12:18;;;;;;;;;;;14.10;99.90;;;;;;5095204;28;19924;-74
2021/10/11 12:14:49;;;;;;;;;;;14.20;99.90;;;;;;5095221;28;20022;-75
2021/10/11 12:17:19;;;;;;;;;;;14.20;99.90;;;;;;5095131;28;19973;-74
2021/10/11 12:19:48;;;;;;;;;;;14.30;99.90;;;;;;5095183;28;19926;-75
2021/10/11 12:22:16;;;;;;;;;;;14.30;99.90;;;;;;5093669;28;19925;-75
2021/10/11 12:24:44;;;;;;;;;;;14.30;99.90;;;;;;5094905;28;19931;-76
2021/10/11 12:27:15;;;;;;;;;;;14.20;99.90;;;;;;5095179;28;19928;-75
2021/10/11 12:29:48;;;;;;;;;;;14.30;99.90;;;;;;5095047;28;20031;-75
2021/10/11 12:32:16;;;;;;;;;;;14.30;99.90;;;;;;5095009;28;19924;-77
2021/10/11 12:34:46;;;;;;;;;;;14.20;99.90;;;;;;5094982;28;19924;-75
2021/10/11 12:37:15;;;;;;;;;;;14.20;99.90;;;;;;5095033;28;20019;-75
2021/10/11 12:39:46;;;;;;;;;;;14.20;99.90;;;;;;5094949;28;20015;-76
2021/10/11 12:42:16;;;;;;;;;;;14.20;99.90;;;;;;5095023;28;19924;-75
2021/10/11 12:44:45;;;;;;;;;;;14.20;99.90;;;;;;5080600;28;19935;-75
2021/10/11 12:47:21;;;;;;;;;;;14.20;99.90;;;;;;5073947;28;19929;-75
2021/10/11 12:49:49;;;;;;;;;;;14.30;99.90;;;;;;5076140;28;19924;-75
2021/10/11 12:52:17;;;;;;;;;;;14.30;99.90;;;;;;5078323;28;19924;-76
2021/10/11 12:54:44;;;;;;;;;;;14.30;99.90;;;;;;5078429;28;19939;-75
2021/10/11 12:57:12;;;;;;;;;;;14.30;99.90;;;;;;5078455;28;19940;-75
2021/10/11 12:59:42;;;;;;;;;;;14.20;99.90;;;;;;5078354;28;20352;-76
2021/10/11 13:02:10;;;;;;;;;;;14.10;99.90;;;;;;5078338;28;19954;-75
2021/10/11 13:04:39;;;;;;;;;;;14.10;99.90;;;;;;5078536;28;19935;-76
2021/10/11 13:07:09;;;;;;;;;;;14.00;99.90;;;;;;5078248;28;19925;-76
2021/10/11 13:09:36;;;;;;;;;;;14.00;99.90;;;;;;5078079;28;20256;-76
2021/10/11 13:12:06;;;;;;;;;;;14.00;99.90;;;;;;5078021;28;20026;-75
2021/10/11 13:14:34;;;;;;;;;;;14.00;99.90;;;;;;5078008;28;19978;-75
2021/10/11 13:17:04;;;;;;;;;;;14.00;99.90;;;;;;5078112;28;19932;-76
2021/10/11 13:19:31;;;;;;;;;;;14.00;99.90;;;;;;5078142;28;20082;-76
2021/10/11 13:21:59;;;;;;;;;;;14.00;99.90;;;;;;5077950;28;19990;-75
2021/10/11 13:24:27;;;;;;;;;;;14.00;99.90;;;;;;5077658;28;19936;-75
2021/10/11 13:26:54;;;;;;;;;;;14.00;99.90;;;;;;5077946;28;19935;-75
2021/10/11 13:35:29;;;;;;;;;;;14.20;99.90;;;;;;5077853;28;20355;-75
2021/10/11 14:27:54;;;;;;;;;;;14.00;99.90;;;;;;4956497;29;19929;-74
2021/10/11 14:30:25;;;;;;;;;;;13.90;99.90;;;;;;4956884;29;19934;-74
2021/10/11 15:59:07;;;;;;;;;;;13.40;99.90;;;;;;5095470;28;19920;-74
2021/10/11 16:01:52;;;;;;;;;;;13.40;99.90;;;;;;5095303;28;19931;-75
2021/10/11 16:04:21;;;;;;;;;;;13.30;99.90;;;;;;5095615;28;19932;-74
2021/10/11 16:06:49;;;;;;;;;;;13.30;99.90;;;;;;5095305;28;20352;-75
2021/10/11 16:09:16;;;;;;;;;;;13.30;99.90;;;;;;5093832;28;19924;-74
2021/10/11 16:11:44;;;;;;;;;;;13.30;99.90;;;;;;5095092;28;19924;-75
2021/10/11 16:14:15;;;;;;;;;;;13.30;99.90;;;;;;5095372;28;19924;-74
2021/10/11 16:16:45;;;;;;;;;;;13.40;99.90;;;;;;5093480;28;20047;-75
2021/10/11 16:19:12;;;;;;;;;;;13.30;99.90;;;;;;5090541;28;19975;-75
2021/10/11 16:21:41;;;;;;;;;;;13.40;99.90;;;;;;5087433;28;19928;-74
2021/10/11 16:24:09;;;;;;;;;;;13.30;99.90;;;;;;5089090;28;19924;-75
2021/10/11 16:26:37;;;;;;;;;;;13.30;99.90;;;;;;5094300;28;19935;-75
2021/10/11 16:29:05;;;;;;;;;;;13.30;99.90;;;;;;5078871;28;19925;-74
2021/10/11 16:31:33;;;;;;;;;;;13.20;99.90;;;;;;5078866;28;20039;-74
2021/10/11 16:34:03;;;;;;;;;;;13.20;99.90;;;;;;5079167;28;19924;-74
2021/10/11 16:36:31;;;;;;;;;;;13.10;99.90;;;;;;5078994;28;19932;-74
2021/10/11 16:39:00;;;;;;;;;;;13.20;99.90;;;;;;5078761;28;20356;-74
2021/10/11 16:41:27;;;;;;;;;;;13.10;99.90;;;;;;5078780;28;19939;-75
2021/10/11 16:43:53;;;;;;;;;;;13.10;99.90;;;;;;5077941;28;19975;-75
2021/10/11 16:46:20;;;;;;;;;;;13.20;99.90;;;;;;5077759;28;20379;-75
2021/10/11 16:48:48;;;;;;;;;;;13.10;99.90;;;;;;5078737;28;19978;-75